createdAt,value
2018-03-06T00:02:02.898Z,100.30
2018-03-06T00:04:35.512Z,104.17
2018-03-06T00:07:08.914Z,121.80
2018-03-06T00:09:41.572Z,123.00
2018-03-06T00:12:14.316Z,111.57
2018-03-06T00:14:46.954Z,122.77
2018-03-06T00:17:19.322Z,127.10
2018-03-06T00:19:52.573Z,119.67
2018-03-06T00:22:25.408Z,89.73
2018-03-06T00:24:57.861Z,111.50
2018-03-06T00:27:30.374Z,97.63
2018-03-06T00:30:02.814Z,116.63
2018-03-06T00:32:36.006Z,104.17
2018-03-06T00:35:09.362Z,100.77
2018-03-06T00:37:42.056Z,94.70
2018-03-06T00:40:14.623Z,123.60
2018-03-06T00:42:47.109Z,106.53
2018-03-06T00:45:19.641Z,97.13
2018-03-06T00:47:52.122Z,100.30
2018-03-06T00:50:25.469Z,121.70
2018-03-06T00:52:58.093Z,91.13
2018-03-06T00:55:31.236Z,110.57
2018-03-06T00:58:04.063Z,116.43
2018-03-06T01:00:37.505Z,111.00
2018-03-06T01:03:10.640Z,88.40
2018-03-06T01:05:43.251Z,101.70
2018-03-06T01:08:15.870Z,102.97
2018-03-06T01:10:48.480Z,99.43
2018-03-06T01:13:21.975Z,109.40
2018-03-06T01:15:54.735Z,97.07
2018-03-06T01:18:27.975Z,112.50
2018-03-06T01:21:00.731Z,102.03
2018-03-06T01:23:33.219Z,91.07
2018-03-06T01:26:05.581Z,103.70
2018-03-06T01:28:37.984Z,85.33
2018-03-06T01:31:10.689Z,110.70
2018-03-06T01:33:43.167Z,93.80
2018-03-06T01:36:15.732Z,89.67
2018-03-06T01:38:48.326Z,108.87
2018-03-06T01:41:20.905Z,123.63
2018-03-06T01:43:53.479Z,123.17
2018-03-06T01:46:26.036Z,102.90
2018-03-06T01:48:58.553Z,92.53
2018-03-06T01:51:50.167Z,111.87
2018-03-06T01:54:22.576Z,95.87
2018-03-06T01:56:55.693Z,121.87
2018-03-06T01:59:29.139Z,82.27
2018-03-06T02:02:02.193Z,95.93
2018-03-06T02:04:35.586Z,124.17
2018-03-06T02:07:08.205Z,96.10
2018-03-06T02:09:40.760Z,116.80
2018-03-06T02:12:14.155Z,108.00
2018-03-06T02:14:46.659Z,111.50
2018-03-06T02:17:19.779Z,95.40
2018-03-06T02:19:53.167Z,118.60
2018-03-06T02:22:26.118Z,122.67
2018-03-06T02:24:58.655Z,105.67
2018-03-06T02:27:31.248Z,99.20
2018-03-06T02:30:03.910Z,91.10
2018-03-06T02:32:36.445Z,87.17
2018-03-06T02:35:09.036Z,105.67
2018-03-06T02:37:43.134Z,82.63
2018-03-06T02:40:15.899Z,87.57
2018-03-06T02:42:49.536Z,118.73
2018-03-06T02:45:23.454Z,130.43
2018-03-06T02:47:56.156Z,97.13
2018-03-06T02:50:28.689Z,121.13
2018-03-06T02:53:01.284Z,117.27
2018-03-06T02:55:34.656Z,112.23
2018-03-06T02:58:07.024Z,94.83
2018-03-06T03:00:39.575Z,86.80
2018-03-06T03:03:12.312Z,103.77
2018-03-06T03:05:45.547Z,101.43
2018-03-06T03:08:17.989Z,91.70
2018-03-06T03:10:50.662Z,131.47
2018-03-06T03:13:24.069Z,94.53
2018-03-06T03:15:57.268Z,97.83
2018-03-06T03:18:30.694Z,114.87
2018-03-06T03:21:04.265Z,99.60
2018-03-06T03:23:37.180Z,86.50
2018-03-06T03:26:10.364Z,103.60
2018-03-06T03:28:43.055Z,122.17
2018-03-06T03:31:16.426Z,120.30
2018-03-06T03:33:49.136Z,120.57
2018-03-06T03:36:22.626Z,114.80
2018-03-06T03:38:55.413Z,108.53
2018-03-06T03:41:28.066Z,112.83
2018-03-06T03:44:00.519Z,111.97
2018-03-06T03:46:33.875Z,120.87
2018-03-06T03:49:06.648Z,91.07
2018-03-06T03:51:39.319Z,88.93
2018-03-06T03:54:11.818Z,99.40
2018-03-06T03:56:44.224Z,127.20
2018-03-06T03:59:17.663Z,101.87
2018-03-06T04:01:50.286Z,106.20
2018-03-06T04:04:22.733Z,122.63
2018-03-06T04:06:55.230Z,87.40
2018-03-06T04:09:28.654Z,100.13
2018-03-06T04:12:01.240Z,87.03
2018-03-06T04:14:33.776Z,116.30
2018-03-06T04:17:06.364Z,118.60
2018-03-06T04:19:38.831Z,115.33
2018-03-06T04:22:11.323Z,110.10
2018-03-06T04:24:44.537Z,85.53
2018-03-06T04:27:17.262Z,123.73
2018-03-06T04:29:50.563Z,132.43
2018-03-06T04:32:23.083Z,117.70
2018-03-06T04:34:55.624Z,104.13
2018-03-06T04:37:28.240Z,95.77
2018-03-06T04:40:02.358Z,111.10
2018-03-06T04:42:35.186Z,109.77
2018-03-06T04:45:07.794Z,88.77
2018-03-06T04:47:40.375Z,108.50
2018-03-06T04:50:13.798Z,121.53
2018-03-06T04:52:46.524Z,120.07
2018-03-06T04:55:19.773Z,129.10
2018-03-06T04:57:53.206Z,120.30
2018-03-06T05:00:25.970Z,117.63
2018-03-06T05:02:58.423Z,82.90
2018-03-06T05:05:30.978Z,95.37
2018-03-06T05:08:03.493Z,141.57
2018-03-06T05:10:36.151Z,117.23
2018-03-06T05:13:09.500Z,85.93
2018-03-06T05:15:42.064Z,129.47
2018-03-06T05:18:16.179Z,106.87
2018-03-06T05:20:48.997Z,109.47
2018-03-06T05:23:21.536Z,94.57
2018-03-06T05:25:54.901Z,98.83
2018-03-06T05:28:27.531Z,128.03
2018-03-06T05:31:00.800Z,129.97
2018-03-06T05:33:33.466Z,107.83
2018-03-06T05:36:06.063Z,145.27
2018-03-06T05:38:38.736Z,98.93
2018-03-06T05:41:11.925Z,124.80
2018-03-06T05:43:44.771Z,128.87
2018-03-06T05:46:17.332Z,153.07
2018-03-06T05:48:49.711Z,135.70
2018-03-06T05:51:22.144Z,139.63
2018-03-06T05:53:54.700Z,117.90
2018-03-06T05:56:27.558Z,119.90
2018-03-06T05:59:00.989Z,129.83
2018-03-06T06:01:33.820Z,156.43
2018-03-06T06:04:07.113Z,128.33
2018-03-06T06:06:40.666Z,136.77
2018-03-06T06:09:13.526Z,110.00
2018-03-06T06:11:46.968Z,142.83
2018-03-06T06:14:21.091Z,114.90
2018-03-06T06:16:53.992Z,110.13
2018-03-06T06:19:26.609Z,143.90
2018-03-06T06:21:58.983Z,118.90
2018-03-06T06:24:31.487Z,128.70
2018-03-06T06:27:04.527Z,121.90
2018-03-06T06:29:37.303Z,133.57
2018-03-06T06:32:10.569Z,117.80
2018-03-06T06:34:43.076Z,133.80
2018-03-06T06:37:15.591Z,123.43
2018-03-06T06:39:48.083Z,145.40
2018-03-06T06:42:21.249Z,120.93
2018-03-06T06:44:54.111Z,134.73
2018-03-06T06:47:26.568Z,138.20
2018-03-06T06:49:58.936Z,121.67
2018-03-06T06:52:31.445Z,138.73
2018-03-06T06:55:04.042Z,134.70
2018-03-06T06:57:36.574Z,106.10
2018-03-06T07:00:09.082Z,76.60
2018-03-06T07:02:41.485Z,115.70
2018-03-06T07:05:14.042Z,101.07
2018-03-06T07:07:47.229Z,91.23
2018-03-06T07:10:20.287Z,112.67
2018-03-06T07:12:53.504Z,101.90
2018-03-06T07:15:26.749Z,109.07
2018-03-06T07:17:59.447Z,105.37
2018-03-06T07:20:31.846Z,97.40
2018-03-06T07:23:05.268Z,115.40
2018-03-06T07:25:38.008Z,129.00
2018-03-06T07:28:10.518Z,111.20
2018-03-06T07:30:43.147Z,138.47
2018-03-06T07:33:15.543Z,96.50
2018-03-06T07:35:48.801Z,107.67
2018-03-06T07:38:21.406Z,108.47
2018-03-06T07:40:54.024Z,101.27
2018-03-06T07:43:26.509Z,101.03
2018-03-06T07:45:59.119Z,100.70
2018-03-06T07:48:32.417Z,106.13
2018-03-06T07:51:05.510Z,92.90
2018-03-06T07:53:38.183Z,103.47
2018-03-06T07:56:10.814Z,103.10
2018-03-06T07:58:43.143Z,125.43
2018-03-06T08:01:15.583Z,95.03
2018-03-06T08:03:48.796Z,104.17
2018-03-06T08:06:22.402Z,97.20
2018-03-06T08:08:55.867Z,113.00
2018-03-06T08:11:29.501Z,115.33
2018-03-06T08:14:02.355Z,92.50
2018-03-06T08:16:34.828Z,128.23
2018-03-06T08:19:07.326Z,91.40
2018-03-06T08:21:39.968Z,95.50
2018-03-06T08:24:12.594Z,107.03
2018-03-06T08:26:45.875Z,126.00
2018-03-06T08:29:18.877Z,128.87
2018-03-06T08:31:51.241Z,108.80
2018-03-06T08:34:24.424Z,110.70
2018-03-06T08:36:57.990Z,105.37
2018-03-06T08:39:30.779Z,100.90
2018-03-06T08:42:03.471Z,118.07
2018-03-06T08:44:35.903Z,101.00
2018-03-06T08:47:08.337Z,109.40
2018-03-06T08:49:40.865Z,104.83
2018-03-06T08:52:14.046Z,122.87
2018-03-06T08:54:47.735Z,114.43
2018-03-06T08:57:20.448Z,112.47
2018-03-06T08:59:52.754Z,112.57
2018-03-06T09:02:25.999Z,110.77
2018-03-06T09:04:58.771Z,113.90
2018-03-06T09:07:31.389Z,116.90
2018-03-06T09:10:04.749Z,121.83
2018-03-06T09:12:37.201Z,108.50
2018-03-06T09:15:10.586Z,128.50
2018-03-06T09:17:43.127Z,126.30
2018-03-06T09:20:15.601Z,110.70
2018-03-06T09:22:48.845Z,110.97
2018-03-06T09:25:21.573Z,119.87
2018-03-06T09:27:54.956Z,125.93
2018-03-06T09:30:27.830Z,131.97
2018-03-06T09:33:00.484Z,120.27
2018-03-06T09:35:32.985Z,116.60
2018-03-06T09:38:05.448Z,106.67
2018-03-06T09:40:38.556Z,112.20
2018-03-06T09:43:11.211Z,125.33
2018-03-06T09:45:43.838Z,111.97
2018-03-06T09:48:17.120Z,110.07
2018-03-06T09:50:49.742Z,140.77
2018-03-06T09:53:22.443Z,116.60
2018-03-06T09:55:55.643Z,118.97
2018-03-06T09:58:28.398Z,107.93
2018-03-06T10:01:00.890Z,122.63
2018-03-06T10:03:34.126Z,115.70
2018-03-06T10:06:06.911Z,129.63
2018-03-06T10:08:40.376Z,116.67
2018-03-06T10:11:13.360Z,98.00
2018-03-06T10:13:47.284Z,117.43
2018-03-06T10:16:20.060Z,127.10
2018-03-06T10:18:52.437Z,111.90
2018-03-06T10:21:24.752Z,100.60
2018-03-06T10:23:58.098Z,121.33
2018-03-06T10:26:30.860Z,129.10
2018-03-06T10:29:03.229Z,123.63
2018-03-06T10:31:35.614Z,108.53
2018-03-06T10:34:08.099Z,139.80
2018-03-06T10:36:40.588Z,123.20
2018-03-06T10:39:13.918Z,96.90
2018-03-06T10:41:46.617Z,116.40
2018-03-06T10:44:19.885Z,126.73
2018-03-06T10:46:52.646Z,126.23
2018-03-06T10:49:25.324Z,125.73
2018-03-06T10:51:57.818Z,123.07
2018-03-06T10:54:30.464Z,134.30
2018-03-06T10:57:02.959Z,129.97
2018-03-06T10:59:35.590Z,117.27
2018-03-06T11:02:14.129Z,127.07
2018-03-06T11:04:47.489Z,129.17
2018-03-06T11:07:20.068Z,122.83
2018-03-06T11:09:52.780Z,138.67
2018-03-06T11:12:25.266Z,125.07
2018-03-06T11:14:57.784Z,138.27
2018-03-06T11:17:30.250Z,153.40
2018-03-06T11:20:02.676Z,144.90
2018-03-06T11:22:36.010Z,149.00
2018-03-06T11:25:08.720Z,142.60
2018-03-06T11:27:41.261Z,120.43
2018-03-06T11:30:13.740Z,157.53
2018-03-06T11:32:46.157Z,125.67
2018-03-06T11:35:18.733Z,123.60
2018-03-06T11:37:51.968Z,128.20
2018-03-06T11:40:24.752Z,128.83
2018-03-06T11:42:57.055Z,140.13
2018-03-06T11:45:30.296Z,123.93
2018-03-06T11:48:02.895Z,139.17
2018-03-06T11:50:35.417Z,145.13
2018-03-06T11:53:07.982Z,135.53
2018-03-06T11:55:40.612Z,145.80
2018-03-06T11:58:14.036Z,150.90
2018-03-06T12:00:46.541Z,119.33
2018-03-06T12:03:19.902Z,136.30
2018-03-06T12:05:53.356Z,126.00
2018-03-06T12:08:26.049Z,153.17
2018-03-06T12:10:58.641Z,134.80
2018-03-06T12:13:31.161Z,125.23
2018-03-06T12:16:03.626Z,102.87
2018-03-06T12:18:37.062Z,135.43
2018-03-06T12:21:09.474Z,129.43
2018-03-06T12:23:41.848Z,148.97
2018-03-06T12:26:14.431Z,125.20
2018-03-06T12:28:46.861Z,124.27
2018-03-06T12:31:20.154Z,144.03
2018-03-06T12:33:52.827Z,138.00
2018-03-06T12:36:25.275Z,141.67
2018-03-06T12:38:58.463Z,113.97
2018-03-06T12:41:32.094Z,119.97
2018-03-06T12:44:04.829Z,144.67
2018-03-06T12:46:37.256Z,142.03
2018-03-06T12:49:10.397Z,155.30
2018-03-06T12:51:43.099Z,134.93
2018-03-06T12:54:15.550Z,142.93
2018-03-06T12:56:48.219Z,152.87
2018-03-06T12:59:20.681Z,163.93
2018-03-06T13:01:53.832Z,163.80
2018-03-06T13:04:26.799Z,165.50
2018-03-06T13:06:59.367Z,141.80
2018-03-06T13:09:31.912Z,136.30
2018-03-06T13:12:04.465Z,139.30
2018-03-06T13:14:37.649Z,134.33
2018-03-06T13:17:10.299Z,154.60
2018-03-06T13:19:42.740Z,148.53
2018-03-06T13:22:15.140Z,136.33
2018-03-06T13:24:47.662Z,145.80
2018-03-06T13:27:20.158Z,142.53
2018-03-06T13:29:52.846Z,150.47
2018-03-06T13:32:25.295Z,147.80
2018-03-06T13:34:58.673Z,157.37
2018-03-06T13:37:31.203Z,130.87
2018-03-06T13:40:03.694Z,159.50
2018-03-06T13:42:36.068Z,141.47
2018-03-06T13:45:09.468Z,155.77
2018-03-06T13:47:41.953Z,142.50
2018-03-06T13:50:15.078Z,126.03
2018-03-06T13:52:48.531Z,120.93
2018-03-06T13:55:21.082Z,151.63
2018-03-06T13:57:53.526Z,120.73
2018-03-06T14:00:26.002Z,131.90
2018-03-06T14:02:58.347Z,165.87
2018-03-06T14:05:30.797Z,134.67
2018-03-06T14:08:03.285Z,133.17
2018-03-06T14:10:37.299Z,125.00
2018-03-06T14:13:10.175Z,110.90
2018-03-06T14:15:42.788Z,132.00
2018-03-06T14:18:15.374Z,129.67
2018-03-06T14:20:47.941Z,124.40
2018-03-06T14:23:21.332Z,139.03
2018-03-06T14:25:53.935Z,129.77
2018-03-06T14:28:27.139Z,129.03
2018-03-06T14:30:59.917Z,142.13
2018-03-06T14:33:33.261Z,113.33
2018-03-06T14:36:05.813Z,136.50
2018-03-06T14:38:38.414Z,128.77
2018-03-06T14:41:11.760Z,120.57
2018-03-06T14:43:44.419Z,117.10
2018-03-06T14:46:16.796Z,158.83
2018-03-06T14:48:50.097Z,117.13
2018-03-06T14:51:22.712Z,108.10
2018-03-06T14:53:55.248Z,126.83
2018-03-06T14:56:28.426Z,148.30
2018-03-06T14:59:01.776Z,120.13
2018-03-06T15:01:34.482Z,121.20
2018-03-06T15:04:07.087Z,141.33
2018-03-06T15:06:39.680Z,143.13
2018-03-06T15:09:12.794Z,119.30
2018-03-06T15:11:45.596Z,129.70
2018-03-06T15:14:18.117Z,107.33
2018-03-06T15:16:50.557Z,100.60
2018-03-06T15:19:23.811Z,143.43
2018-03-06T15:21:56.581Z,106.80
2018-03-06T15:24:28.933Z,114.20
2018-03-06T15:27:01.331Z,95.53
2018-03-06T15:29:34.005Z,114.07
2018-03-06T15:32:06.653Z,102.83
2018-03-06T15:34:39.355Z,116.50
2018-03-06T15:37:11.852Z,107.87
2018-03-06T15:39:44.393Z,106.53
2018-03-06T15:42:18.212Z,119.07
2018-03-06T15:44:51.181Z,120.20
2018-03-06T15:47:23.571Z,111.27
2018-03-06T15:49:56.961Z,134.80
2018-03-06T15:52:30.471Z,108.33
2018-03-06T15:55:03.623Z,110.87
2018-03-06T15:57:37.910Z,135.50
2018-03-06T16:00:11.027Z,113.13
2018-03-06T16:02:44.973Z,132.47
2018-03-06T16:05:17.747Z,103.90
2018-03-06T16:07:50.880Z,108.23
2018-03-06T16:10:23.638Z,125.77
2018-03-06T16:12:56.072Z,105.90
2018-03-06T16:15:28.526Z,111.30
2018-03-06T16:18:01.726Z,109.73
2018-03-06T16:20:34.229Z,117.23
2018-03-06T16:23:06.728Z,107.03
2018-03-06T16:25:39.418Z,132.63
2018-03-06T16:28:11.768Z,103.43
2018-03-06T16:30:44.240Z,123.27
2018-03-06T16:33:17.399Z,112.83
2018-03-06T16:35:50.053Z,113.77
2018-03-06T16:38:22.680Z,99.93
2018-03-06T16:40:55.151Z,115.63
2018-03-06T16:43:27.693Z,104.13
2018-03-06T16:46:00.212Z,104.23
2018-03-06T16:48:32.814Z,106.63
2018-03-06T16:51:05.281Z,111.60
2018-03-06T16:53:37.780Z,107.20
2018-03-06T16:56:10.262Z,111.83
2018-03-06T16:58:42.687Z,123.80
2018-03-06T17:01:15.318Z,107.13
2018-03-06T17:03:47.844Z,102.33
2018-03-06T17:06:21.179Z,112.73
2018-03-06T17:08:53.723Z,105.53
2018-03-06T17:11:26.232Z,121.30
2018-03-06T17:13:59.343Z,128.70
2018-03-06T17:16:32.129Z,123.37
2018-03-06T17:19:04.619Z,105.30
2018-03-06T17:21:38.873Z,99.67
2018-03-06T17:24:11.531Z,106.20
2018-03-06T17:26:43.912Z,104.60
2018-03-06T17:29:16.367Z,129.57
2018-03-06T17:31:49.077Z,124.83
2018-03-06T17:34:23.406Z,106.67
2018-03-06T17:36:56.117Z,128.87
2018-03-06T17:39:29.541Z,115.47
2018-03-06T17:42:02.048Z,118.60
2018-03-06T17:44:34.497Z,118.00
2018-03-06T17:47:07.193Z,112.27
2018-03-06T17:49:40.428Z,93.40
2018-03-06T17:52:14.030Z,99.73
2018-03-06T17:54:47.485Z,107.67
2018-03-06T17:57:20.167Z,113.20
2018-03-06T17:59:53.640Z,112.77
2018-03-06T18:02:27.376Z,101.37
2018-03-06T18:05:00.813Z,112.80
2018-03-06T18:07:34.544Z,109.50
2018-03-06T18:10:07.846Z,121.83
2018-03-06T18:12:42.690Z,122.90
2018-03-06T18:15:15.898Z,109.60
2018-03-06T18:17:49.053Z,112.37
2018-03-06T18:20:23.484Z,113.20
2018-03-06T18:22:57.573Z,101.67
2018-03-06T18:25:31.121Z,110.47
2018-03-06T18:28:04.981Z,113.63
2018-03-06T18:30:38.400Z,106.60
2018-03-06T18:33:11.750Z,106.87
2018-03-06T18:35:45.199Z,120.30
2018-03-06T18:38:19.843Z,102.50
2018-03-06T18:40:53.273Z,106.87
2018-03-06T18:43:26.570Z,101.20
2018-03-06T18:45:59.984Z,95.60
2018-03-06T18:48:33.888Z,104.73
2018-03-06T18:51:12.953Z,108.17
2018-03-06T18:53:46.679Z,103.80
2018-03-06T18:56:20.947Z,116.40
2018-03-06T18:58:54.729Z,99.47
2018-03-06T19:05:20.140Z,101.87
2018-03-06T19:07:54.384Z,100.73
2018-03-06T19:10:28.585Z,99.17
2018-03-06T19:13:02.586Z,106.30
2018-03-06T19:15:37.066Z,107.80
2018-03-06T19:18:11.372Z,99.50
2018-03-06T19:20:45.824Z,91.53
2018-03-06T19:23:21.091Z,114.20
2018-03-06T19:25:56.553Z,98.27
2018-03-06T19:28:31.247Z,103.37
2018-03-06T19:31:05.782Z,78.80
2018-03-06T19:33:40.154Z,82.10
2018-03-06T19:36:15.081Z,76.63
2018-03-06T19:38:49.369Z,59.37
2018-03-06T19:41:24.049Z,70.17
2018-03-06T19:43:58.384Z,62.80
2018-03-06T19:46:32.889Z,56.30
2018-03-06T19:49:06.973Z,68.17
2018-03-06T19:51:41.577Z,63.37
2018-03-06T19:54:15.840Z,78.37
2018-03-06T19:56:51.215Z,64.03
2018-03-06T19:59:26.063Z,61.67
2018-03-06T20:02:00.638Z,62.07
2018-03-06T20:04:34.915Z,60.67
2018-03-06T20:07:09.431Z,61.13
2018-03-06T20:09:45.217Z,59.60
2018-03-06T20:12:20.389Z,62.43
2018-03-06T20:15:00.350Z,58.67
2018-03-06T20:17:35.196Z,56.67
2018-03-06T20:20:09.697Z,72.23
2018-03-06T20:22:45.528Z,61.97
2018-03-06T20:25:26.237Z,59.43
2018-03-06T20:28:01.086Z,53.27
2018-03-06T20:30:41.339Z,67.90
2018-03-06T20:33:17.375Z,57.37
2018-03-06T20:35:52.235Z,63.33
2018-03-06T20:38:32.269Z,65.50
2018-03-06T20:41:07.539Z,66.73
2018-03-06T20:43:42.483Z,64.40
2018-03-06T20:46:22.747Z,65.17
2018-03-06T20:48:58.493Z,61.83
2018-03-06T20:51:33.072Z,69.97
2018-03-06T20:54:13.771Z,65.87
2018-03-06T20:56:48.304Z,63.57
2018-03-06T20:59:22.755Z,65.30
2018-03-06T21:01:57.043Z,65.70
2018-03-06T21:04:31.572Z,67.23
2018-03-06T21:07:06.540Z,62.30
2018-03-06T21:09:42.364Z,83.40
2018-03-06T21:12:17.912Z,80.43
2018-03-06T21:14:52.440Z,77.37
2018-03-06T21:17:26.923Z,76.10
2018-03-06T21:20:01.510Z,76.57
2018-03-06T21:22:36.573Z,80.33
2018-03-06T21:25:11.334Z,75.80
2018-03-06T21:27:45.635Z,74.23
2018-03-06T21:30:20.082Z,78.30
2018-03-06T21:32:55.299Z,73.13
2018-03-06T21:35:29.874Z,75.27
2018-03-06T21:38:03.502Z,62.57
2018-03-06T21:40:37.606Z,60.67
2018-03-06T21:43:11.696Z,73.03
2018-03-06T21:45:45.683Z,60.83
2018-03-06T21:48:19.248Z,59.10
2018-03-06T21:50:51.973Z,69.37
2018-03-06T21:53:25.380Z,60.57
2018-03-06T21:55:59.000Z,61.50
2018-03-06T21:58:31.754Z,55.77
2018-03-06T22:01:05.895Z,56.37
2018-03-06T22:03:38.830Z,52.43
2018-03-06T22:06:12.187Z,48.93
2018-03-06T22:08:44.789Z,53.50
2018-03-06T22:11:17.235Z,45.97
2018-03-06T22:13:49.655Z,53.33
2018-03-06T22:16:22.155Z,49.57
2018-03-06T22:18:55.392Z,46.53
2018-03-06T22:21:27.753Z,57.70
2018-03-06T22:24:00.151Z,52.93
2018-03-06T22:26:33.531Z,45.77
2018-03-06T22:29:05.937Z,44.47
2018-03-06T22:31:38.383Z,45.63
2018-03-06T22:34:10.983Z,33.50
2018-03-06T22:36:45.069Z,33.87
2018-03-06T22:39:17.831Z,39.30
2018-03-06T22:41:50.326Z,34.70
2018-03-06T22:44:22.804Z,35.37
2018-03-06T22:46:55.236Z,42.20
2018-03-06T22:49:27.756Z,38.37
2018-03-06T22:52:00.210Z,43.33
2018-03-06T22:54:33.322Z,41.60
2018-03-06T22:57:06.137Z,37.40
2018-03-06T22:59:38.577Z,38.10
2018-03-06T23:02:11.013Z,37.73
2018-03-06T23:04:43.429Z,31.37
2018-03-06T23:07:16.647Z,38.63
2018-03-06T23:09:49.181Z,33.83
2018-03-06T23:12:21.650Z,37.87
2018-03-06T23:14:54.103Z,41.53
2018-03-06T23:17:26.605Z,30.07
2018-03-06T23:19:59.720Z,36.17
2018-03-06T23:22:32.516Z,37.33
2018-03-06T23:25:04.862Z,38.50
2018-03-06T23:27:38.009Z,27.90
2018-03-06T23:30:10.603Z,28.00
2018-03-06T23:32:43.831Z,30.57
2018-03-06T23:35:16.449Z,37.20
2018-03-06T23:37:48.996Z,30.87
2018-03-06T23:40:21.458Z,28.77
2018-03-06T23:42:53.857Z,35.20
2018-03-06T23:45:26.312Z,32.17
2018-03-06T23:47:58.713Z,35.63
2018-03-06T23:50:32.085Z,29.67
2018-03-06T23:53:05.371Z,38.57
2018-03-06T23:55:37.859Z,36.07
2018-03-06T23:58:10.363Z,33.87
